createdAt,value
2024-04-21T00:00:22.282Z,0.67
2024-04-21T00:03:25.706Z,1.33
2024-04-21T00:06:27.955Z,0.60
2024-04-21T00:09:30.088Z,0.70
2024-04-21T00:12:35.022Z,0.63
2024-04-21T00:15:37.132Z,0.80
2024-04-21T00:18:39.426Z,0.80
2024-04-21T00:21:41.666Z,0.60
2024-04-21T00:24:43.958Z,1.17
2024-04-21T00:27:46.095Z,0.93
2024-04-21T00:30:48.356Z,1.07
2024-04-21T00:33:50.644Z,1.80
2024-04-21T00:36:53.116Z,1.57
2024-04-21T00:39:55.247Z,0.93
2024-04-21T00:43:01.046Z,1.33
2024-04-21T00:46:04.552Z,2.50
2024-04-21T00:49:08.234Z,1.00
2024-04-21T00:52:10.624Z,0.70
2024-04-21T00:55:13.258Z,1.07
2024-04-21T00:58:19.013Z,0.60
2024-04-21T01:01:23.580Z,0.60
2024-04-21T01:04:27.070Z,1.00
2024-04-21T01:07:29.624Z,0.87
2024-04-21T01:10:32.367Z,3.33
2024-04-21T01:13:34.620Z,1.07
2024-04-21T01:16:36.877Z,0.70
2024-04-21T01:19:39.169Z,0.90
2024-04-21T01:22:50.211Z,0.57
2024-04-21T01:25:52.452Z,1.00
2024-04-21T01:28:54.720Z,1.50
2024-04-21T01:31:57.333Z,1.80
2024-04-21T01:34:59.449Z,0.50
2024-04-21T01:38:01.564Z,0.53
2024-04-21T01:41:03.794Z,1.00
2024-04-21T01:44:05.907Z,0.50
2024-04-21T01:47:08.079Z,0.90
2024-04-21T01:50:11.985Z,0.73
2024-04-21T01:53:14.262Z,0.97
2024-04-21T01:56:17.287Z,1.07
2024-04-21T01:59:19.406Z,2.30
2024-04-21T02:02:21.916Z,0.77
2024-04-21T02:05:24.077Z,0.80
2024-04-21T02:08:26.252Z,0.80
2024-04-21T02:11:28.492Z,0.80
2024-04-21T02:14:30.851Z,0.60
2024-04-21T02:17:33.041Z,0.73
2024-04-21T02:20:35.705Z,1.07
2024-04-21T02:23:37.906Z,0.80
2024-04-21T02:26:40.717Z,0.97
2024-04-21T02:29:43.013Z,0.87
2024-04-21T02:32:45.363Z,1.10
2024-04-21T02:35:47.548Z,0.70
2024-04-21T02:38:49.755Z,0.80
2024-04-21T02:41:51.846Z,0.90
2024-04-21T02:44:53.991Z,1.30
2024-04-21T02:47:56.198Z,0.90
2024-04-21T02:50:58.381Z,2.23
2024-04-21T02:54:00.472Z,0.80
2024-04-21T02:57:03.274Z,1.07
2024-04-21T03:00:05.991Z,1.10
2024-04-21T03:03:08.510Z,0.90
2024-04-21T03:06:10.665Z,1.17
2024-04-21T03:09:13.429Z,0.60
2024-04-21T03:12:16.412Z,1.53
2024-04-21T03:15:18.583Z,1.60
2024-04-21T03:18:20.704Z,0.90
2024-04-21T03:21:23.086Z,1.83
2024-04-21T03:24:25.193Z,1.03
2024-04-21T03:27:27.438Z,1.30
2024-04-21T03:30:29.521Z,0.97
2024-04-21T03:33:31.833Z,0.60
2024-04-21T03:36:33.960Z,0.90
2024-04-21T03:39:36.238Z,0.77
2024-04-21T03:42:38.435Z,1.37
2024-04-21T03:45:40.774Z,0.77
2024-04-21T03:48:43.729Z,2.47
2024-04-21T03:51:46.174Z,0.80
2024-04-21T03:54:48.281Z,0.60
2024-04-21T03:57:50.547Z,0.87
2024-04-21T04:00:52.854Z,1.37
2024-04-21T04:03:55.240Z,1.27
2024-04-21T04:06:57.550Z,0.70
2024-04-21T04:10:00.369Z,0.80
2024-04-21T04:13:02.606Z,0.70
2024-04-21T04:16:05.212Z,2.00
2024-04-21T04:19:07.374Z,1.07
2024-04-21T04:22:09.703Z,1.13
2024-04-21T04:25:12.531Z,1.27
2024-04-21T04:28:15.037Z,3.53
2024-04-21T04:31:17.247Z,1.30
2024-04-21T04:34:19.544Z,1.67
2024-04-21T04:37:21.810Z,1.30
2024-04-21T04:40:24.299Z,1.10
2024-04-21T04:43:26.620Z,3.20
2024-04-21T04:46:29.298Z,1.10
2024-04-21T04:49:31.500Z,3.00
2024-04-21T04:52:34.045Z,2.07
2024-04-21T04:55:36.149Z,1.10
2024-04-21T04:58:38.386Z,2.50
2024-04-21T05:01:40.912Z,21.60
2024-04-21T05:04:43.313Z,25.67
2024-04-21T05:07:45.452Z,20.80
2024-04-21T05:10:47.641Z,7.50
2024-04-21T05:13:49.766Z,1.93
2024-04-21T05:16:52.232Z,1.70
2024-04-21T05:19:55.540Z,2.23
2024-04-21T05:22:58.342Z,1.07
2024-04-21T05:26:00.480Z,1.13
2024-04-21T05:29:02.948Z,0.90
2024-04-21T05:32:05.582Z,1.10
2024-04-21T05:35:08.188Z,1.53
2024-04-21T05:38:10.276Z,1.10
2024-04-21T05:41:12.488Z,2.07
2024-04-21T05:44:14.604Z,1.10
2024-04-21T05:47:17.415Z,1.07
2024-04-21T05:50:19.702Z,1.70
2024-04-21T05:53:22.210Z,1.23
2024-04-21T05:56:24.385Z,1.97
2024-04-21T05:59:29.784Z,1.20
2024-04-21T06:02:32.696Z,2.90
2024-04-21T06:05:35.226Z,2.67
2024-04-21T06:08:37.348Z,7.20
2024-04-21T06:11:39.539Z,5.07
2024-04-21T06:14:41.646Z,2.63
2024-04-21T06:17:44.429Z,5.90
2024-04-21T06:20:46.640Z,3.60
2024-04-21T06:23:49.916Z,1.50
2024-04-21T06:26:52.075Z,1.40
2024-04-21T06:29:54.239Z,2.00
2024-04-21T06:32:56.401Z,1.77
2024-04-21T06:35:58.713Z,1.37
2024-04-21T06:39:00.813Z,4.10
2024-04-21T06:42:06.170Z,2.13
2024-04-21T06:45:09.081Z,1.37
2024-04-21T06:48:11.404Z,1.80
2024-04-21T06:51:13.514Z,1.57
2024-04-21T06:54:15.919Z,1.60
2024-04-21T06:57:18.035Z,2.50
2024-04-21T07:00:20.802Z,1.60
2024-04-21T07:03:22.900Z,1.93
2024-04-21T07:06:25.200Z,1.83
2024-04-21T07:09:27.343Z,2.10
2024-04-21T07:12:29.615Z,1.60
2024-04-21T07:15:31.956Z,1.70
2024-04-21T07:18:34.363Z,3.23
2024-04-21T07:21:36.500Z,2.57
2024-04-21T07:24:38.707Z,2.23
2024-04-21T07:27:40.816Z,2.17
2024-04-21T07:30:43.340Z,1.67
2024-04-21T07:33:45.547Z,1.17
2024-04-21T07:36:48.801Z,1.37
2024-04-21T07:39:50.946Z,1.60
2024-04-21T07:42:54.083Z,1.63
2024-04-21T07:45:56.251Z,0.93
2024-04-21T07:48:59.026Z,0.73
2024-04-21T07:52:01.196Z,1.00
2024-04-21T07:55:03.842Z,0.80
2024-04-21T07:58:06.015Z,3.17
2024-04-21T08:01:09.217Z,1.20
2024-04-21T08:04:11.941Z,0.83
2024-04-21T08:07:14.744Z,1.40
2024-04-21T08:10:16.967Z,2.00
2024-04-21T08:13:19.414Z,0.70
2024-04-21T08:16:21.627Z,1.27
2024-04-21T08:19:23.995Z,1.33
2024-04-21T08:22:26.783Z,1.40
2024-04-21T08:25:29.960Z,1.10
2024-04-21T08:28:32.184Z,1.20
2024-04-21T08:31:34.378Z,1.07
2024-04-21T08:34:37.639Z,1.30
2024-04-21T08:37:40.377Z,1.30
2024-04-21T08:40:42.618Z,1.20
2024-04-21T08:43:47.208Z,1.20
2024-04-21T08:46:53.552Z,1.17
2024-04-21T08:49:58.135Z,1.40
2024-04-21T08:53:00.269Z,1.43
2024-04-21T08:56:13.979Z,1.60
2024-04-21T08:59:17.231Z,1.80
2024-04-21T09:02:23.244Z,1.37
2024-04-21T09:05:25.610Z,1.20
2024-04-21T09:08:28.002Z,1.37
2024-04-21T09:11:32.271Z,6.73
2024-04-21T09:14:44.362Z,1.70
2024-04-21T09:17:46.902Z,1.10
2024-04-21T09:20:49.657Z,1.17
2024-04-21T09:23:51.767Z,2.63
2024-04-21T09:26:54.071Z,1.77
2024-04-21T09:29:59.196Z,0.77
2024-04-21T09:33:02.218Z,0.80
2024-04-21T09:36:06.616Z,1.53
2024-04-21T09:39:08.839Z,3.07
2024-04-21T09:42:11.326Z,1.03
2024-04-21T09:45:14.874Z,1.07
2024-04-21T09:48:17.177Z,1.00
2024-04-21T09:51:20.200Z,1.37
2024-04-21T09:54:26.692Z,0.70
2024-04-21T09:57:36.620Z,1.07
2024-04-21T10:00:43.464Z,1.57
2024-04-21T10:03:47.497Z,1.63
2024-04-21T10:06:50.620Z,1.60
2024-04-21T10:09:54.570Z,2.70
2024-04-21T10:12:57.236Z,1.07
2024-04-21T10:15:59.803Z,4.60
2024-04-21T10:19:06.074Z,1.73
2024-04-21T10:22:09.181Z,1.10
2024-04-21T10:25:11.345Z,2.63
2024-04-21T10:28:15.559Z,1.17
2024-04-21T10:31:28.427Z,0.90
2024-04-21T10:34:31.263Z,0.60
2024-04-21T10:37:34.145Z,1.20
2024-04-21T10:40:41.088Z,1.90
2024-04-21T10:43:43.231Z,1.07
2024-04-21T10:46:45.407Z,0.90
2024-04-21T10:49:48.635Z,1.90
2024-04-21T10:52:51.722Z,1.10
2024-04-21T10:55:55.488Z,0.83
2024-04-21T10:58:58.025Z,2.83
2024-04-21T11:02:00.286Z,1.13
2024-04-21T11:05:02.808Z,0.77
2024-04-21T11:08:05.355Z,1.23
2024-04-21T11:11:09.263Z,1.37
2024-04-21T11:14:11.399Z,1.33
2024-04-21T11:17:16.866Z,0.87
2024-04-21T11:20:19.322Z,0.60
2024-04-21T11:23:22.149Z,0.53
2024-04-21T11:26:24.661Z,1.73
2024-04-21T11:29:26.887Z,0.80
2024-04-21T11:32:28.994Z,1.23
2024-04-21T11:35:32.186Z,1.07
2024-04-21T11:38:34.436Z,1.63
2024-04-21T11:41:36.720Z,1.70
2024-04-21T11:44:39.014Z,0.93
2024-04-21T11:47:44.016Z,2.27
2024-04-21T11:50:46.434Z,0.70
2024-04-21T11:53:49.510Z,1.77
2024-04-21T11:56:51.731Z,1.60
2024-04-21T11:59:53.923Z,1.07
2024-04-21T12:02:56.025Z,1.03
2024-04-21T12:05:58.306Z,1.17
2024-04-21T12:09:02.462Z,1.10
2024-04-21T12:12:07.483Z,1.97
2024-04-21T12:15:10.081Z,1.43
2024-04-21T12:18:15.255Z,1.67
2024-04-21T12:21:17.785Z,3.33
2024-04-21T12:24:19.908Z,1.20
2024-04-21T12:27:23.834Z,1.20
2024-04-21T12:30:29.055Z,4.93
2024-04-21T12:33:31.185Z,4.83
2024-04-21T12:36:34.262Z,3.77
2024-04-21T12:39:37.306Z,1.33
2024-04-21T12:42:39.833Z,1.63
2024-04-21T12:45:42.059Z,1.43
2024-04-21T12:48:44.349Z,0.90
2024-04-21T12:51:49.646Z,1.37
2024-04-21T12:54:53.052Z,2.63
2024-04-21T12:57:56.007Z,1.10
2024-04-21T13:00:58.388Z,1.30
2024-04-21T13:04:00.707Z,1.30
2024-04-21T13:07:03.097Z,1.30
2024-04-21T13:10:05.536Z,2.20
2024-04-21T13:13:08.169Z,0.80
2024-04-21T13:16:10.401Z,1.87
2024-04-21T13:19:12.729Z,1.00
2024-04-21T13:22:14.883Z,0.97
2024-04-21T13:25:17.215Z,1.00
2024-04-21T13:28:19.401Z,5.90
2024-04-21T13:31:29.943Z,0.93
2024-04-21T13:34:32.181Z,1.30
2024-04-21T13:37:37.092Z,1.17
2024-04-21T13:40:39.279Z,1.60
2024-04-21T13:43:41.427Z,1.20
2024-04-21T13:46:43.622Z,0.90
2024-04-21T13:49:46.094Z,1.67
2024-04-21T13:52:48.345Z,1.27
2024-04-21T13:55:50.735Z,1.60
2024-04-21T13:58:52.848Z,1.30
2024-04-21T14:01:56.331Z,1.67
2024-04-21T14:04:58.609Z,1.80
2024-04-21T14:08:00.985Z,1.07
2024-04-21T14:11:04.754Z,0.60
2024-04-21T14:14:08.197Z,0.70
2024-04-21T14:17:10.409Z,0.70
2024-04-21T14:20:13.006Z,1.20
2024-04-21T14:23:15.125Z,2.73
2024-04-21T14:26:17.313Z,1.30
2024-04-21T14:29:19.441Z,1.47
2024-04-21T14:32:21.908Z,3.97
2024-04-21T14:35:24.127Z,5.17
2024-04-21T14:38:27.167Z,2.73
2024-04-21T14:41:29.257Z,0.70
2024-04-21T14:44:36.639Z,2.50
2024-04-21T14:47:45.753Z,2.53
2024-04-21T14:51:00.172Z,3.50
2024-04-21T14:54:02.359Z,4.97
2024-04-21T14:57:05.905Z,2.43
2024-04-21T15:00:09.949Z,2.20
2024-04-21T15:03:12.079Z,0.40
2024-04-21T15:06:17.417Z,1.83
2024-04-21T15:09:19.554Z,3.13
2024-04-21T15:12:23.184Z,1.83
2024-04-21T15:15:29.881Z,1.70
2024-04-21T15:18:32.042Z,2.07
2024-04-21T15:21:37.142Z,3.83
2024-04-21T15:24:40.055Z,2.53
2024-04-21T15:27:46.724Z,3.37
2024-04-21T15:30:48.836Z,3.97
2024-04-21T15:33:51.269Z,6.63
2024-04-21T15:36:53.570Z,1.27
2024-04-21T15:39:55.714Z,0.80
2024-04-21T15:42:57.948Z,1.83
2024-04-21T15:46:00.344Z,2.50
2024-04-21T15:49:02.509Z,2.20
2024-04-21T15:52:05.082Z,2.07
2024-04-21T15:55:09.931Z,1.47
2024-04-21T15:58:12.103Z,1.13
2024-04-21T16:01:14.281Z,1.00
2024-04-21T16:04:17.287Z,1.10
2024-04-21T16:07:19.916Z,1.83
2024-04-21T16:10:22.302Z,1.13
2024-04-21T16:13:24.505Z,1.70
2024-04-21T16:16:27.219Z,1.27
2024-04-21T16:19:29.933Z,0.50
2024-04-21T16:22:33.162Z,0.90
2024-04-21T16:25:41.018Z,3.03
2024-04-21T16:28:43.493Z,2.10
2024-04-21T16:31:46.291Z,1.87
2024-04-21T16:34:50.484Z,2.07
2024-04-21T16:37:53.263Z,2.83
2024-04-21T16:40:55.818Z,1.10
2024-04-21T16:43:58.216Z,0.87
2024-04-21T16:47:00.853Z,2.83
2024-04-21T16:50:04.180Z,1.40
2024-04-21T16:53:06.703Z,1.47
2024-04-21T16:56:11.418Z,1.13
2024-04-21T16:59:13.946Z,2.20
2024-04-21T17:02:16.437Z,1.03
2024-04-21T17:05:19.190Z,1.60
2024-04-21T17:08:41.484Z,1.37
2024-04-21T17:11:51.989Z,2.23
2024-04-21T17:14:54.092Z,1.00
2024-04-21T17:17:56.937Z,3.07
2024-04-21T17:20:59.135Z,1.97
2024-04-21T17:24:01.353Z,1.97
2024-04-21T17:27:03.543Z,3.90
2024-04-21T17:30:06.372Z,2.30
2024-04-21T17:33:08.602Z,1.87
2024-04-21T17:36:10.882Z,1.10
2024-04-21T17:39:12.952Z,1.17
2024-04-21T17:42:15.164Z,1.53
2024-04-21T17:45:21.738Z,3.90
2024-04-21T17:48:23.929Z,1.20
2024-04-21T17:51:26.870Z,1.27
2024-04-21T17:54:30.073Z,0.90
2024-04-21T17:57:32.253Z,1.60
2024-04-21T18:00:34.803Z,1.97
2024-04-21T18:03:37.123Z,2.80
2024-04-21T18:06:39.433Z,1.33
2024-04-21T18:09:41.521Z,0.90
2024-04-21T18:12:43.793Z,2.30
2024-04-21T18:15:47.165Z,1.03
2024-04-21T18:18:49.755Z,1.73
2024-04-21T18:21:54.935Z,4.37
2024-04-21T18:24:57.274Z,1.00
2024-04-21T18:27:59.846Z,3.70
2024-04-21T18:31:02.033Z,1.00
2024-04-21T18:34:04.181Z,1.07
2024-04-21T18:37:07.345Z,1.00
2024-04-21T18:40:09.922Z,1.43
2024-04-21T18:43:13.078Z,1.37
2024-04-21T18:46:15.360Z,0.80
2024-04-21T18:49:18.570Z,0.60
2024-04-21T18:52:22.197Z,0.80
2024-04-21T18:55:24.633Z,0.60
2024-04-21T18:58:26.801Z,0.80
2024-04-21T19:01:29.127Z,0.60
2024-04-21T19:04:31.732Z,1.10
2024-04-21T19:07:33.967Z,0.80
2024-04-21T19:10:38.665Z,1.13
2024-04-21T19:13:41.775Z,2.83
2024-04-21T19:16:44.514Z,1.90
2024-04-21T19:19:48.922Z,0.73
2024-04-21T19:22:51.510Z,1.40
2024-04-21T19:25:53.857Z,0.87
2024-04-21T19:28:56.518Z,1.83
2024-04-21T19:31:58.671Z,0.60
2024-04-21T19:35:00.910Z,0.80
2024-04-21T19:38:05.021Z,0.80
2024-04-21T19:41:07.206Z,1.13
2024-04-21T19:44:09.604Z,0.90
2024-04-21T19:47:11.735Z,0.80
2024-04-21T19:50:14.093Z,1.00
2024-04-21T19:53:16.232Z,0.73
2024-04-21T19:56:18.589Z,0.77
2024-04-21T19:59:20.690Z,0.87
2024-04-21T20:02:23.645Z,1.20
2024-04-21T20:05:25.813Z,1.03
2024-04-21T20:08:28.303Z,1.17
2024-04-21T20:11:30.595Z,1.10
2024-04-21T20:14:51.963Z,1.80
2024-04-21T20:18:12.645Z,3.60
2024-04-21T20:21:15.418Z,2.10
2024-04-21T20:24:18.000Z,1.13
2024-04-21T20:27:20.177Z,2.13
2024-04-21T20:30:22.301Z,2.47
2024-04-21T20:33:24.965Z,1.50
2024-04-21T20:36:27.466Z,1.37
2024-04-21T20:39:29.801Z,1.37
2024-04-21T20:42:31.933Z,1.60
2024-04-21T20:45:34.166Z,2.60
2024-04-21T20:48:36.403Z,1.80
2024-04-21T20:51:39.787Z,2.67
2024-04-21T20:54:42.389Z,4.83
2024-04-21T20:57:44.576Z,2.07
2024-04-21T21:00:48.250Z,2.30
2024-04-21T21:03:50.943Z,2.63
2024-04-21T21:06:54.126Z,2.23
2024-04-21T21:09:56.281Z,2.40
2024-04-21T21:12:58.403Z,2.60
2024-04-21T21:16:02.497Z,3.67
2024-04-21T21:19:04.815Z,2.90
2024-04-21T21:22:07.715Z,2.47
2024-04-21T21:25:09.975Z,2.20
2024-04-21T21:28:13.059Z,2.07
2024-04-21T21:31:15.260Z,2.13
2024-04-21T21:34:17.624Z,1.57
2024-04-21T21:37:19.895Z,2.30
2024-04-21T21:40:23.222Z,2.33
2024-04-21T21:43:28.176Z,2.40
2024-04-21T21:46:30.771Z,2.60
2024-04-21T21:49:32.995Z,2.07
2024-04-21T21:52:35.723Z,2.63
2024-04-21T21:55:38.101Z,1.70
2024-04-21T21:58:40.503Z,1.73
2024-04-21T22:01:42.839Z,2.73
2024-04-21T22:04:45.340Z,1.60
2024-04-21T22:07:47.485Z,1.83
2024-04-21T22:10:49.790Z,2.10
2024-04-21T22:13:52.274Z,1.63
2024-04-21T22:16:54.506Z,1.37
2024-04-21T22:19:56.680Z,1.37
2024-04-21T22:23:00.100Z,1.40
2024-04-21T22:26:02.331Z,1.53
2024-04-21T22:29:04.595Z,1.20
2024-04-21T22:32:07.016Z,4.23
2024-04-21T22:35:09.793Z,2.13
2024-04-21T22:38:11.938Z,1.47
2024-04-21T22:41:14.229Z,1.40
2024-04-21T22:44:16.353Z,1.57
2024-04-21T22:47:18.632Z,1.30
2024-04-21T22:50:20.794Z,1.60
2024-04-21T22:53:23.019Z,1.47
2024-04-21T22:56:25.708Z,1.27
2024-04-21T22:59:29.333Z,1.20
2024-04-21T23:02:31.525Z,1.50
2024-04-21T23:05:34.072Z,1.33
2024-04-21T23:08:36.359Z,0.90
2024-04-21T23:11:38.555Z,1.27
2024-04-21T23:14:40.751Z,1.57
2024-04-21T23:17:43.039Z,1.40
2024-04-21T23:20:46.713Z,1.27
2024-04-21T23:23:49.412Z,1.10
2024-04-21T23:26:51.546Z,1.50
2024-04-21T23:29:53.862Z,1.67
2024-04-21T23:32:56.181Z,1.43
2024-04-21T23:35:58.384Z,1.30
2024-04-21T23:39:00.505Z,1.63
2024-04-21T23:42:03.363Z,2.13
2024-04-21T23:45:06.182Z,1.43
2024-04-21T23:48:09.768Z,1.37
2024-04-21T23:51:12.382Z,1.50
2024-04-21T23:54:14.876Z,1.43
2024-04-21T23:57:17.120Z,1.60
